sensor_id;sensor_type;location;lat;lon;timestamp;pressure;altitude;pressure_sealevel;temperature;humidity
13124;BME280;6627;50.920;12.050;2023-05-20T00:00:24;99658.50;;;24.46;39.24
13124;BME280;6627;50.920;12.050;2023-05-20T00:02:51;99657.34;;;24.73;38.51
13124;BME280;6627;50.920;12.050;2023-05-20T00:05:19;99477.88;;;23.30;41.14
13124;BME280;6627;50.920;12.050;2023-05-20T00:07:46;99558.72;;;23.66;41.38
13124;BME280;6627;50.920;12.050;2023-05-20T00:10:15;99624.78;;;24.17;40.57
13124;BME280;6627;50.920;12.050;2023-05-20T00:12:42;99478.03;;;23.41;40.47
13124;BME280;6627;50.920;12.050;2023-05-20T00:15:10;99537.34;;;23.44;41.45
13124;BME280;6627;50.920;12.050;2023-05-20T00:17:38;99506.97;;;23.24;41.88
13124;BME280;6627;50.920;12.050;2023-05-20T00:20:06;99527.00;;;23.40;41.28
13124;BME280;6627;50.920;12.050;2023-05-20T00:22:34;99437.81;;;22.98;41.74
13124;BME280;6627;50.920;12.050;2023-05-20T00:25:01;99446.53;;;22.80;42.48
13124;BME280;6627;50.920;12.050;2023-05-20T00:27:29;99473.47;;;23.06;41.92
13124;BME280;6627;50.920;12.050;2023-05-20T00:29:57;99562.59;;;23.42;41.91
13124;BME280;6627;50.920;12.050;2023-05-20T00:32:24;99523.16;;;23.03;42.86
13124;BME280;6627;50.920;12.050;2023-05-20T00:34:55;99377.97;;;22.24;42.59
13124;BME280;6627;50.920;12.050;2023-05-20T00:37:23;99524.91;;;22.91;43.04
13124;BME280;6627;50.920;12.050;2023-05-20T00:39:50;99511.50;;;22.74;43.53
13124;BME280;6627;50.920;12.050;2023-05-20T00:42:20;99635.53;;;23.76;41.06
13124;BME280;6627;50.920;12.050;2023-05-20T00:44:50;99399.00;;;22.13;43.13
13124;BME280;6627;50.920;12.050;2023-05-20T00:47:19;99605.19;;;23.37;42.15
13124;BME280;6627;50.920;12.050;2023-05-20T00:49:49;99592.63;;;23.44;41.55
13124;BME280;6627;50.920;12.050;2023-05-20T00:52:18;99730.06;;;24.44;40.51
13124;BME280;6627;50.920;12.050;2023-05-20T00:54:45;99640.50;;;24.09;40.56
13124;BME280;6627;50.920;12.050;2023-05-20T00:57:14;99595.34;;;23.82;40.69
13124;BME280;6627;50.920;12.050;2023-05-20T00:59:42;99661.44;;;24.33;40.18
13124;BME280;6627;50.920;12.050;2023-05-20T01:02:11;99638.88;;;24.31;40.05
13124;BME280;6627;50.920;12.050;2023-05-20T01:04:39;99626.97;;;24.04;40.53
13124;BME280;6627;50.920;12.050;2023-05-20T01:07:14;99646.50;;;24.38;40.04
13124;BME280;6627;50.920;12.050;2023-05-20T01:09:43;99548.91;;;23.72;41.15
13124;BME280;6627;50.920;12.050;2023-05-20T01:12:15;99526.00;;;23.72;40.95
13124;BME280;6627;50.920;12.050;2023-05-20T01:14:49;99756.78;;;25.05;39.37
13124;BME280;6627;50.920;12.050;2023-05-20T01:17:19;99588.25;;;24.08;39.87
13124;BME280;6627;50.920;12.050;2023-05-20T01:19:47;99388.38;;;22.73;42.19
13124;BME280;6627;50.920;12.050;2023-05-20T01:22:15;99601.00;;;23.66;42.26
13124;BME280;6627;50.920;12.050;2023-05-20T01:24:45;99477.31;;;23.02;42.43
13124;BME280;6627;50.920;12.050;2023-05-20T01:27:14;99547.38;;;23.52;41.37
13124;BME280;6627;50.920;12.050;2023-05-20T01:29:42;99464.19;;;22.76;42.45
13124;BME280;6627;50.920;12.050;2023-05-20T01:32:18;99487.66;;;23.05;42.28
13124;BME280;6627;50.920;12.050;2023-05-20T01:34:49;99601.63;;;23.79;41.35
13124;BME280;6627;50.920;12.050;2023-05-20T01:37:18;99537.47;;;23.51;41.13
13124;BME280;6627;50.920;12.050;2023-05-20T01:39:49;99649.97;;;24.08;40.93
13124;BME280;6627;50.920;12.050;2023-05-20T01:42:19;99630.75;;;24.19;40.39
13124;BME280;6627;50.920;12.050;2023-05-20T01:44:48;99621.25;;;24.39;39.44
13124;BME280;6627;50.920;12.050;2023-05-20T01:47:15;99585.06;;;24.06;40.60
13124;BME280;6627;50.920;12.050;2023-05-20T01:49:42;99500.78;;;23.31;41.71
13124;BME280;6627;50.920;12.050;2023-05-20T01:52:11;99517.53;;;23.41;41.91
13124;BME280;6627;50.920;12.050;2023-05-20T01:54:38;99682.38;;;24.54;40.56
13124;BME280;6627;50.920;12.050;2023-05-20T01:57:07;99676.72;;;24.47;40.33
13124;BME280;6627;50.920;12.050;2023-05-20T01:59:35;99570.78;;;23.58;41.58
13124;BME280;6627;50.920;12.050;2023-05-20T02:02:02;99564.41;;;24.00;40.53
13124;BME280;6627;50.920;12.050;2023-05-20T02:04:30;99613.72;;;24.17;40.72
13124;BME280;6627;50.920;12.050;2023-05-20T02:06:57;99377.94;;;22.44;43.24
13124;BME280;6627;50.920;12.050;2023-05-20T02:09:24;99494.34;;;22.84;43.32
13124;BME280;6627;50.920;12.050;2023-05-20T02:11:52;99512.22;;;23.10;42.75
13124;BME280;6627;50.920;12.050;2023-05-20T02:14:21;99489.56;;;22.81;43.10
13124;BME280;6627;50.920;12.050;2023-05-20T02:16:48;99472.81;;;22.74;43.29
13124;BME280;6627;50.920;12.050;2023-05-20T02:19:15;99532.81;;;23.12;42.92
13124;BME280;6627;50.920;12.050;2023-05-20T02:21:49;99476.38;;;22.75;42.67
13124;BME280;6627;50.920;12.050;2023-05-20T02:24:16;99532.88;;;22.97;43.04
13124;BME280;6627;50.920;12.050;2023-05-20T02:26:46;99463.09;;;22.61;43.19
13124;BME280;6627;50.920;12.050;2023-05-20T02:29:14;99508.72;;;22.74;43.76
13124;BME280;6627;50.920;12.050;2023-05-20T02:31:43;99400.91;;;21.93;45.39
13124;BME280;6627;50.920;12.050;2023-05-20T02:34:10;99578.69;;;23.17;43.11
13124;BME280;6627;50.920;12.050;2023-05-20T02:36:38;99556.38;;;23.06;42.93
13124;BME280;6627;50.920;12.050;2023-05-20T02:39:05;99587.25;;;23.31;42.52
13124;BME280;6627;50.920;12.050;2023-05-20T02:41:33;99553.97;;;23.05;43.03
13124;BME280;6627;50.920;12.050;2023-05-20T02:44:00;99639.06;;;23.73;42.08
13124;BME280;6627;50.920;12.050;2023-05-20T02:46:27;99510.94;;;22.84;43.31
13124;BME280;6627;50.920;12.050;2023-05-20T02:48:56;99545.16;;;23.19;42.77
13124;BME280;6627;50.920;12.050;2023-05-20T02:51:24;99483.88;;;22.74;43.11
13124;BME280;6627;50.920;12.050;2023-05-20T02:53:51;99416.75;;;21.96;45.18
13124;BME280;6627;50.920;12.050;2023-05-20T02:56:18;99535.78;;;22.84;43.87
13124;BME280;6627;50.920;12.050;2023-05-20T02:58:47;99475.84;;;22.30;44.94
13124;BME280;6627;50.920;12.050;2023-05-20T03:01:14;99360.88;;;21.64;44.91
13124;BME280;6627;50.920;12.050;2023-05-20T03:03:42;99514.84;;;22.45;44.73
13124;BME280;6627;50.920;12.050;2023-05-20T03:06:11;99452.63;;;21.96;44.64
13124;BME280;6627;50.920;12.050;2023-05-20T03:08:38;99657.09;;;23.48;43.28
13124;BME280;6627;50.920;12.050;2023-05-20T03:11:07;99574.47;;;23.04;42.85
13124;BME280;6627;50.920;12.050;2023-05-20T03:13:35;99503.91;;;22.52;43.69
13124;BME280;6627;50.920;12.050;2023-05-20T03:16:02;99401.88;;;21.65;45.16
13124;BME280;6627;50.920;12.050;2023-05-20T03:18:30;99556.34;;;22.67;44.55
13124;BME280;6627;50.920;12.050;2023-05-20T03:20:58;99515.09;;;22.39;44.80
13124;BME280;6627;50.920;12.050;2023-05-20T03:23:26;99442.91;;;21.86;45.07
13124;BME280;6627;50.920;12.050;2023-05-20T03:25:54;99427.53;;;21.85;45.15
13124;BME280;6627;50.920;12.050;2023-05-20T03:28:21;99530.94;;;22.62;44.24
13124;BME280;6627;50.920;12.050;2023-05-20T03:30:48;99422.81;;;21.86;44.96
13124;BME280;6627;50.920;12.050;2023-05-20T03:33:15;99521.19;;;22.49;44.83
13124;BME280;6627;50.920;12.050;2023-05-20T03:35:43;99440.34;;;21.94;45.25
13124;BME280;6627;50.920;12.050;2023-05-20T03:38:10;99477.50;;;22.15;45.36
13124;BME280;6627;50.920;12.050;2023-05-20T03:40:39;99432.25;;;21.85;45.38
13124;BME280;6627;50.920;12.050;2023-05-20T03:43:06;99514.06;;;22.28;45.53
13124;BME280;6627;50.920;12.050;2023-05-20T03:45:33;99500.47;;;22.04;46.36
13124;BME280;6627;50.920;12.050;2023-05-20T03:48:01;99577.69;;;22.71;44.78
13124;BME280;6627;50.920;12.050;2023-05-20T03:50:29;99551.84;;;22.44;45.36
13124;BME280;6627;50.920;12.050;2023-05-20T03:52:57;99542.25;;;22.37;45.36
13124;BME280;6627;50.920;12.050;2023-05-20T03:55:24;99469.47;;;21.75;46.58
13124;BME280;6627;50.920;12.050;2023-05-20T03:57:54;99432.41;;;21.57;46.59
13124;BME280;6627;50.920;12.050;2023-05-20T04:00:22;99418.03;;;21.20;47.19
13124;BME280;6627;50.920;12.050;2023-05-20T04:02:49;99364.38;;;20.82;47.52
13124;BME280;6627;50.920;12.050;2023-05-20T04:05:17;99322.59;;;20.20;48.72
13124;BME280;6627;50.920;12.050;2023-05-20T04:07:45;99681.06;;;22.70;46.11
13124;BME280;6627;50.920;12.050;2023-05-20T04:10:13;99569.53;;;22.07;46.24
13124;BME280;6627;50.920;12.050;2023-05-20T04:12:40;99625.78;;;22.34;46.05
13124;BME280;6627;50.920;12.050;2023-05-20T04:15:10;99533.94;;;21.86;46.38
13124;BME280;6627;50.920;12.050;2023-05-20T04:17:38;99406.53;;;20.70;47.92
13124;BME280;6627;50.920;12.050;2023-05-20T04:20:06;99523.25;;;21.37;48.13
13124;BME280;6627;50.920;12.050;2023-05-20T04:22:36;99467.00;;;20.95;48.32
13124;BME280;6627;50.920;12.050;2023-05-20T04:25:05;99699.31;;;22.74;45.80
13124;BME280;6627;50.920;12.050;2023-05-20T04:27:32;99585.72;;;21.77;47.13
13124;BME280;6627;50.920;12.050;2023-05-20T04:30:00;99546.91;;;21.38;47.17
13124;BME280;6627;50.920;12.050;2023-05-20T04:32:30;99499.97;;;21.07;47.22
13124;BME280;6627;50.920;12.050;2023-05-20T04:34:59;99517.84;;;20.85;48.89
13124;BME280;6627;50.920;12.050;2023-05-20T04:37:28;99594.25;;;21.72;47.24
13124;BME280;6627;50.920;12.050;2023-05-20T04:39:57;99565.22;;;21.47;47.60
13124;BME280;6627;50.920;12.050;2023-05-20T04:42:24;99606.72;;;21.98;46.16
13124;BME280;6627;50.920;12.050;2023-05-20T04:44:51;99635.16;;;22.14;46.11
13124;BME280;6627;50.920;12.050;2023-05-20T04:47:18;99472.31;;;20.87;47.71
13124;BME280;6627;50.920;12.050;2023-05-20T04:49:47;99534.56;;;21.48;46.49
13124;BME280;6627;50.920;12.050;2023-05-20T04:52:15;99561.97;;;21.57;46.78
13124;BME280;6627;50.920;12.050;2023-05-20T04:54:43;99504.25;;;21.20;47.03
13124;BME280;6627;50.920;12.050;2023-05-20T04:57:11;99543.69;;;21.36;47.87
13124;BME280;6627;50.920;12.050;2023-05-20T04:59:38;99583.56;;;21.55;48.13
13124;BME280;6627;50.920;12.050;2023-05-20T05:02:06;99704.91;;;22.62;46.02
13124;BME280;6627;50.920;12.050;2023-05-20T05:04:33;99615.00;;;21.98;46.65
13124;BME280;6627;50.920;12.050;2023-05-20T05:07:01;99611.09;;;21.99;46.41
13124;BME280;6627;50.920;12.050;2023-05-20T05:09:30;99581.44;;;21.64;46.97
13124;BME280;6627;50.920;12.050;2023-05-20T05:11:57;99526.75;;;21.22;47.92
13124;BME280;6627;50.920;12.050;2023-05-20T05:14:25;99584.28;;;21.67;47.29
13124;BME280;6627;50.920;12.050;2023-05-20T05:16:52;99624.19;;;22.02;46.96
13124;BME280;6627;50.920;12.050;2023-05-20T05:19:19;99520.41;;;21.34;47.63
13124;BME280;6627;50.920;12.050;2023-05-20T05:21:47;99547.56;;;21.48;47.01
13124;BME280;6627;50.920;12.050;2023-05-20T05:24:15;99683.66;;;22.47;46.49
13124;BME280;6627;50.920;12.050;2023-05-20T05:26:43;99717.56;;;22.95;44.95
13124;BME280;6627;50.920;12.050;2023-05-20T05:29:10;99536.84;;;21.46;46.97
13124;BME280;6627;50.920;12.050;2023-05-20T05:31:38;99619.34;;;21.99;46.84
13124;BME280;6627;50.920;12.050;2023-05-20T05:34:05;99614.22;;;22.45;45.52
13124;BME280;6627;50.920;12.050;2023-05-20T05:36:33;99640.31;;;22.82;44.31
13124;BME280;6627;50.920;12.050;2023-05-20T05:39:00;99592.75;;;22.22;45.49
13124;BME280;6627;50.920;12.050;2023-05-20T05:41:30;99620.13;;;22.27;46.12
13124;BME280;6627;50.920;12.050;2023-05-20T05:43:58;99597.22;;;22.11;46.29
13124;BME280;6627;50.920;12.050;2023-05-20T05:46:26;99575.06;;;21.91;47.47
13124;BME280;6627;50.920;12.050;2023-05-20T05:48:53;99700.81;;;23.03;44.74
13124;BME280;6627;50.920;12.050;2023-05-20T05:51:20;99823.53;;;23.88;44.26
13124;BME280;6627;50.920;12.050;2023-05-20T05:53:49;99551.16;;;22.47;44.39
13124;BME280;6627;50.920;12.050;2023-05-20T05:56:16;99665.78;;;22.91;45.54
13124;BME280;6627;50.920;12.050;2023-05-20T05:58:45;99651.19;;;23.10;44.30
13124;BME280;6627;50.920;12.050;2023-05-20T06:01:13;99723.81;;;23.46;44.26
13124;BME280;6627;50.920;12.050;2023-05-20T06:03:40;99805.72;;;24.48;42.48
13124;BME280;6627;50.920;12.050;2023-05-20T06:06:08;99706.75;;;23.79;43.16
13124;BME280;6627;50.920;12.050;2023-05-20T06:08:35;99535.56;;;22.38;45.58
13124;BME280;6627;50.920;12.050;2023-05-20T06:11:02;99606.59;;;22.92;45.33
13124;BME280;6627;50.920;12.050;2023-05-20T06:13:29;99644.09;;;23.29;44.17
13124;BME280;6627;50.920;12.050;2023-05-20T06:15:58;99562.59;;;22.64;44.86
13124;BME280;6627;50.920;12.050;2023-05-20T06:18:25;99747.91;;;24.04;43.56
13124;BME280;6627;50.920;12.050;2023-05-20T06:20:56;99706.00;;;23.63;44.26
13124;BME280;6627;50.920;12.050;2023-05-20T06:23:25;99717.66;;;23.91;43.33
13124;BME280;6627;50.920;12.050;2023-05-20T06:25:57;99773.69;;;24.27;43.07
13124;BME280;6627;50.920;12.050;2023-05-20T06:28:24;99783.47;;;24.40;42.60
13124;BME280;6627;50.920;12.050;2023-05-20T06:30:53;99652.41;;;23.90;42.10
13124;BME280;6627;50.920;12.050;2023-05-20T06:33:22;99651.72;;;23.74;43.30
13124;BME280;6627;50.920;12.050;2023-05-20T06:35:52;99627.88;;;23.47;43.84
13124;BME280;6627;50.920;12.050;2023-05-20T06:38:22;99712.81;;;24.08;43.14
13124;BME280;6627;50.920;12.050;2023-05-20T06:40:50;99693.47;;;23.88;43.25
13124;BME280;6627;50.920;12.050;2023-05-20T06:43:18;99822.47;;;25.01;42.13
13124;BME280;6627;50.920;12.050;2023-05-20T06:45:46;99555.25;;;23.30;42.92
13124;BME280;6627;50.920;12.050;2023-05-20T06:48:13;99601.81;;;23.48;43.26
13124;BME280;6627;50.920;12.050;2023-05-20T06:50:43;99764.72;;;24.57;42.93
13124;BME280;6627;50.920;12.050;2023-05-20T06:53:11;99679.84;;;23.99;42.95
13124;BME280;6627;50.920;12.050;2023-05-20T06:55:38;99583.31;;;23.32;43.81
13124;BME280;6627;50.920;12.050;2023-05-20T06:58:06;99692.56;;;24.04;43.19
13124;BME280;6627;50.920;12.050;2023-05-20T07:00:33;99566.75;;;23.32;43.59
13124;BME280;6627;50.920;12.050;2023-05-20T07:03:00;99754.63;;;24.68;42.23
13124;BME280;6627;50.920;12.050;2023-05-20T07:05:27;99688.09;;;24.19;42.94
13124;BME280;6627;50.920;12.050;2023-05-20T07:07:56;99604.41;;;23.40;44.44
13124;BME280;6627;50.920;12.050;2023-05-20T07:10:24;99689.53;;;24.09;43.44
13124;BME280;6627;50.920;12.050;2023-05-20T07:12:51;99633.88;;;23.95;42.94
13124;BME280;6627;50.920;12.050;2023-05-20T07:15:18;99628.19;;;23.84;42.66
13124;BME280;6627;50.920;12.050;2023-05-20T07:17:46;99557.72;;;23.35;43.99
13124;BME280;6627;50.920;12.050;2023-05-20T07:20:13;99525.13;;;23.02;44.74
13124;BME280;6627;50.920;12.050;2023-05-20T07:22:40;99675.66;;;24.32;42.35
13124;BME280;6627;50.920;12.050;2023-05-20T07:25:10;99642.16;;;23.91;43.44
13124;BME280;6627;50.920;12.050;2023-05-20T07:27:38;99828.50;;;25.29;42.18
13124;BME280;6627;50.920;12.050;2023-05-20T07:30:06;99787.53;;;25.46;40.72
13124;BME280;6627;50.920;12.050;2023-05-20T07:32:35;99485.75;;;23.74;41.74
13124;BME280;6627;50.920;12.050;2023-05-20T07:35:02;99597.63;;;24.00;43.19
13124;BME280;6627;50.920;12.050;2023-05-20T07:37:29;99577.59;;;23.64;43.99
13124;BME280;6627;50.920;12.050;2023-05-20T07:39:57;99748.59;;;24.85;42.72
13124;BME280;6627;50.920;12.050;2023-05-20T07:42:25;99740.31;;;25.12;41.59
13124;BME280;6627;50.920;12.050;2023-05-20T07:44:53;99598.16;;;23.86;43.83
13124;BME280;6627;50.920;12.050;2023-05-20T07:47:20;99642.75;;;24.50;42.78
13124;BME280;6627;50.920;12.050;2023-05-20T07:49:47;99700.13;;;24.76;42.41
13124;BME280;6627;50.920;12.050;2023-05-20T07:52:14;99749.94;;;25.22;41.56
13124;BME280;6627;50.920;12.050;2023-05-20T07:54:42;99512.94;;;23.49;43.85
13124;BME280;6627;50.920;12.050;2023-05-20T07:57:09;99437.28;;;22.92;43.93
13124;BME280;6627;50.920;12.050;2023-05-20T07:59:38;99634.81;;;24.25;43.53
13124;BME280;6627;50.920;12.050;2023-05-20T08:02:07;99581.94;;;23.84;43.27
13124;BME280;6627;50.920;12.050;2023-05-20T08:04:35;99576.00;;;23.82;44.04
13124;BME280;6627;50.920;12.050;2023-05-20T08:07:03;99733.81;;;25.04;42.60
13124;BME280;6627;50.920;12.050;2023-05-20T08:09:30;99615.78;;;24.47;42.36
13124;BME280;6627;50.920;12.050;2023-05-20T08:11:57;99808.91;;;25.75;41.99
13124;BME280;6627;50.920;12.050;2023-05-20T08:14:24;99554.19;;;24.30;42.78
13124;BME280;6627;50.920;12.050;2023-05-20T08:16:53;99706.97;;;25.08;42.64
13124;BME280;6627;50.920;12.050;2023-05-20T08:19:21;99719.16;;;25.30;41.75
13124;BME280;6627;50.920;12.050;2023-05-20T08:21:48;99654.25;;;24.78;42.48
13124;BME280;6627;50.920;12.050;2023-05-20T08:24:15;99800.50;;;25.68;42.18
13124;BME280;6627;50.920;12.050;2023-05-20T08:26:42;99660.88;;;25.00;42.14
13124;BME280;6627;50.920;12.050;2023-05-20T08:29:10;99828.22;;;26.28;40.35
13124;BME280;6627;50.920;12.050;2023-05-20T08:31:37;99776.41;;;26.06;40.45
13124;BME280;6627;50.920;12.050;2023-05-20T08:34:05;99686.03;;;25.45;41.40
13124;BME280;6627;50.920;12.050;2023-05-20T08:36:32;99526.88;;;24.55;41.48
13124;BME280;6627;50.920;12.050;2023-05-20T08:39:00;99707.09;;;25.79;40.77
13124;BME280;6627;50.920;12.050;2023-05-20T08:41:29;99769.72;;;26.48;39.82
13124;BME280;6627;50.920;12.050;2023-05-20T08:43:59;99883.94;;;27.17;39.56
13124;BME280;6627;50.920;12.050;2023-05-20T08:46:26;99911.47;;;27.84;37.89
13124;BME280;6627;50.920;12.050;2023-05-20T08:48:54;99646.69;;;26.51;38.62
13124;BME280;6627;50.920;12.050;2023-05-20T08:51:26;99833.63;;;28.13;37.28
13124;BME280;6627;50.920;12.050;2023-05-20T08:53:53;99551.03;;;26.52;38.12
13124;BME280;6627;50.920;12.050;2023-05-20T08:56:21;99776.22;;;27.76;37.61
13124;BME280;6627;50.920;12.050;2023-05-20T08:58:49;99722.84;;;27.67;37.18
13124;BME280;6627;50.920;12.050;2023-05-20T09:01:17;99707.22;;;27.37;37.92
13124;BME280;6627;50.920;12.050;2023-05-20T09:03:44;99608.69;;;26.69;38.54
13124;BME280;6627;50.920;12.050;2023-05-20T09:06:16;99705.97;;;27.24;38.29
13124;BME280;6627;50.920;12.050;2023-05-20T09:08:48;99555.69;;;26.40;38.53
13124;BME280;6627;50.920;12.050;2023-05-20T09:11:16;99782.22;;;27.85;37.88
13124;BME280;6627;50.920;12.050;2023-05-20T09:13:44;99620.09;;;27.15;37.64
13124;BME280;6627;50.920;12.050;2023-05-20T09:16:11;99688.56;;;27.41;38.21
13124;BME280;6627;50.920;12.050;2023-05-20T09:18:39;99640.66;;;27.07;38.56
13124;BME280;6627;50.920;12.050;2023-05-20T09:21:09;99580.06;;;26.65;38.98
13124;BME280;6627;50.920;12.050;2023-05-20T09:23:37;99791.00;;;28.02;38.24
13124;BME280;6627;50.920;12.050;2023-05-20T09:26:05;99787.88;;;28.21;37.59
13124;BME280;6627;50.920;12.050;2023-05-20T09:28:33;99777.16;;;28.30;37.14
13124;BME280;6627;50.920;12.050;2023-05-20T09:31:04;99672.66;;;27.49;38.56
13124;BME280;6627;50.920;12.050;2023-05-20T09:33:33;99587.41;;;26.98;38.87
13124;BME280;6627;50.920;12.050;2023-05-20T09:36:03;99718.06;;;27.64;38.86
13124;BME280;6627;50.920;12.050;2023-05-20T09:38:35;99761.56;;;28.01;38.66
13124;BME280;6627;50.920;12.050;2023-05-20T09:41:10;99861.72;;;29.06;36.61
13124;BME280;6627;50.920;12.050;2023-05-20T09:43:39;99736.16;;;28.20;37.87
13124;BME280;6627;50.920;12.050;2023-05-20T09:46:11;99659.59;;;27.71;38.43
13124;BME280;6627;50.920;12.050;2023-05-20T09:48:39;99753.31;;;28.40;37.30
13124;BME280;6627;50.920;12.050;2023-05-20T09:51:07;99831.03;;;29.20;37.11
13124;BME280;6627;50.920;12.050;2023-05-20T09:53:35;99717.50;;;28.60;36.88
13124;BME280;6627;50.920;12.050;2023-05-20T09:56:03;99824.19;;;29.53;36.02
13124;BME280;6627;50.920;12.050;2023-05-20T09:58:34;99664.91;;;28.62;36.83
13124;BME280;6627;50.920;12.050;2023-05-20T10:01:02;99842.47;;;29.83;36.62
13124;BME280;6627;50.920;12.050;2023-05-20T10:03:30;99552.28;;;27.91;37.60
13124;BME280;6627;50.920;12.050;2023-05-20T10:06:22;99816.97;;;29.77;36.03
13124;BME280;6627;50.920;12.050;2023-05-20T10:09:15;99592.41;;;28.69;35.76
13124;BME280;6627;50.920;12.050;2023-05-20T10:12:00;99578.09;;;28.28;37.38
13124;BME280;6627;50.920;12.050;2023-05-20T10:14:49;99602.78;;;28.58;36.69
13124;BME280;6627;50.920;12.050;2023-05-20T10:17:29;99866.16;;;30.52;35.63
13124;BME280;6627;50.920;12.050;2023-05-20T10:19:59;99778.91;;;30.08;35.24
13124;BME280;6627;50.920;12.050;2023-05-20T10:22:28;99607.25;;;29.47;35.36
13124;BME280;6627;50.920;12.050;2023-05-20T10:25:03;99712.38;;;29.85;36.02
13124;BME280;6627;50.920;12.050;2023-05-20T10:27:42;99796.25;;;30.52;35.38
13124;BME280;6627;50.920;12.050;2023-05-20T10:30:20;99644.59;;;29.74;35.50
13124;BME280;6627;50.920;12.050;2023-05-20T10:32:51;99652.34;;;30.15;34.34
13124;BME280;6627;50.920;12.050;2023-05-20T10:35:24;99784.66;;;31.02;33.65
13124;BME280;6627;50.920;12.050;2023-05-20T10:37:54;99470.44;;;28.84;35.71
13124;BME280;6627;50.920;12.050;2023-05-20T10:40:33;99615.19;;;29.52;35.74
13124;BME280;6627;50.920;12.050;2023-05-20T10:43:09;99659.22;;;29.96;34.91
13124;BME280;6627;50.920;12.050;2023-05-20T10:45:49;99637.00;;;30.37;33.88
13124;BME280;6627;50.920;12.050;2023-05-20T10:48:22;99600.56;;;29.96;35.02
13124;BME280;6627;50.920;12.050;2023-05-20T10:50:52;99590.13;;;30.04;34.50
13124;BME280;6627;50.920;12.050;2023-05-20T10:53:22;99756.91;;;31.18;33.74
13124;BME280;6627;50.920;12.050;2023-05-20T10:55:52;99532.88;;;29.78;35.35
13124;BME280;6627;50.920;12.050;2023-05-20T10:58:21;99522.66;;;29.57;35.69
13124;BME280;6627;50.920;12.050;2023-05-20T11:00:54;99673.88;;;30.18;35.67
13124;BME280;6627;50.920;12.050;2023-05-20T11:03:21;99566.25;;;29.33;36.64
13124;BME280;6627;50.920;12.050;2023-05-20T11:05:49;99709.41;;;30.73;34.28
13124;BME280;6627;50.920;12.050;2023-05-20T11:08:17;99574.34;;;29.79;35.36
13124;BME280;6627;50.920;12.050;2023-05-20T11:10:45;99404.94;;;28.40;37.28
13124;BME280;6627;50.920;12.050;2023-05-20T11:13:12;99552.97;;;29.55;35.73
13124;BME280;6627;50.920;12.050;2023-05-20T11:15:41;99502.16;;;29.19;36.16
13124;BME280;6627;50.920;12.050;2023-05-20T11:18:10;99568.88;;;29.65;35.89
13124;BME280;6627;50.920;12.050;2023-05-20T11:20:40;99734.69;;;31.04;34.36
13124;BME280;6627;50.920;12.050;2023-05-20T11:23:13;99775.78;;;31.82;33.36
13124;BME280;6627;50.920;12.050;2023-05-20T11:25:41;99601.84;;;30.36;35.01
13124;BME280;6627;50.920;12.050;2023-05-20T11:28:11;99406.41;;;29.32;35.09
13124;BME280;6627;50.920;12.050;2023-05-20T11:30:41;99567.19;;;29.78;36.40
13124;BME280;6627;50.920;12.050;2023-05-20T11:33:12;99469.22;;;28.88;37.94
13124;BME280;6627;50.920;12.050;2023-05-20T11:35:44;99454.53;;;28.77;37.81
13124;BME280;6627;50.920;12.050;2023-05-20T11:38:12;99445.97;;;28.39;38.41
13124;BME280;6627;50.920;12.050;2023-05-20T11:40:43;99503.91;;;28.84;37.09
13124;BME280;6627;50.920;12.050;2023-05-20T11:43:13;99675.19;;;29.96;37.21
13124;BME280;6627;50.920;12.050;2023-05-20T11:45:42;99448.38;;;28.23;38.57
13124;BME280;6627;50.920;12.050;2023-05-20T11:48:12;99524.22;;;28.84;37.48
13124;BME280;6627;50.920;12.050;2023-05-20T11:50:42;99553.25;;;29.05;37.26
13124;BME280;6627;50.920;12.050;2023-05-20T11:53:14;99699.44;;;30.17;36.40
13124;BME280;6627;50.920;12.050;2023-05-20T11:55:47;99647.19;;;30.06;36.30
13124;BME280;6627;50.920;12.050;2023-05-20T11:58:17;99708.97;;;30.71;35.43
13124;BME280;6627;50.920;12.050;2023-05-20T12:00:45;99545.31;;;29.66;36.57
13124;BME280;6627;50.920;12.050;2023-05-20T12:03:14;99464.03;;;28.90;37.12
13124;BME280;6627;50.920;12.050;2023-05-20T12:05:42;99621.09;;;29.75;37.64
13124;BME280;6627;50.920;12.050;2023-05-20T12:08:10;99495.38;;;29.23;36.36
13124;BME280;6627;50.920;12.050;2023-05-20T12:10:37;99481.13;;;29.00;37.09
13124;BME280;6627;50.920;12.050;2023-05-20T12:13:04;99559.25;;;29.73;36.19
13124;BME280;6627;50.920;12.050;2023-05-20T12:15:33;99634.72;;;30.22;36.21
13124;BME280;6627;50.920;12.050;2023-05-20T12:18:01;99505.34;;;29.17;37.65
13124;BME280;6627;50.920;12.050;2023-05-20T12:20:30;99637.94;;;30.13;36.64
13124;BME280;6627;50.920;12.050;2023-05-20T12:22:59;99458.44;;;29.01;37.39
13124;BME280;6627;50.920;12.050;2023-05-20T12:25:27;99560.13;;;29.63;36.75
13124;BME280;6627;50.920;12.050;2023-05-20T12:27:55;99508.47;;;29.26;37.18
13124;BME280;6627;50.920;12.050;2023-05-20T12:30:23;99621.03;;;30.34;35.59
13124;BME280;6627;50.920;12.050;2023-05-20T12:32:51;99527.56;;;29.94;36.28
13124;BME280;6627;50.920;12.050;2023-05-20T12:35:34;99465.31;;;29.41;36.50
13124;BME280;6627;50.920;12.050;2023-05-20T12:38:03;99505.06;;;29.63;36.44
13124;BME280;6627;50.920;12.050;2023-05-20T12:40:31;99489.22;;;29.46;37.27
13124;BME280;6627;50.920;12.050;2023-05-20T12:43:00;99428.88;;;29.11;37.12
13124;BME280;6627;50.920;12.050;2023-05-20T12:45:27;99609.84;;;30.34;36.17
13124;BME280;6627;50.920;12.050;2023-05-20T12:47:55;99569.38;;;30.01;36.96
13124;BME280;6627;50.920;12.050;2023-05-20T12:50:24;99489.97;;;29.57;37.07
13124;BME280;6627;50.920;12.050;2023-05-20T12:52:52;99483.63;;;29.46;37.14
13124;BME280;6627;50.920;12.050;2023-05-20T12:55:20;99673.09;;;31.04;35.26
13124;BME280;6627;50.920;12.050;2023-05-20T12:57:48;99543.22;;;30.29;35.64
13124;BME280;6627;50.920;12.050;2023-05-20T13:00:16;99516.75;;;29.96;36.83
13124;BME280;6627;50.920;12.050;2023-05-20T13:02:44;99696.22;;;31.46;34.75
13124;BME280;6627;50.920;12.050;2023-05-20T13:05:14;99497.44;;;30.16;36.23
13124;BME280;6627;50.920;12.050;2023-05-20T13:07:41;99676.16;;;31.51;34.98